Time;durP1;ratioP1;P1;durP2;ratioP2;P2;SDS_P1;SDS_P2;PMS_P1;PMS_P2;Temp;Humidity;BMP_temperature;BMP_pressure;BME280_temperature;BME280_humidity;BME280_pressure;Samples;Min_cycle;Max_cycle;Signal;HPM_P1;HPM_P2
2023/12/28 00:02:16;;;;;;;0.00;0.00;;;;;;;;;;6218659;23;20010;-80
2023/12/28 00:04:41;;;;;;;0.28;0.00;;;;;;;;;;6248294;23;20420;-79
2023/12/28 00:07:07;;;;;;;0.00;0.00;;;;;;;;;;6245670;23;20007;-79
2023/12/28 00:09:32;;;;;;;0.00;0.00;;;;;;;;;;6245265;23;20130;-78
2023/12/28 00:11:58;;;;;;;0.00;0.00;;;;;;;;;;6245923;23;20070;-79
2023/12/28 00:14:24;;;;;;;0.00;0.00;;;;;;;;;;6169193;23;20016;-79
2023/12/28 00:16:49;;;;;;;0.00;0.00;;;;;;;;;;6250587;23;20000;-79
2023/12/28 00:19:15;;;;;;;0.00;0.00;;;;;;;;;;6270200;22;20004;-79
2023/12/28 00:21:41;;;;;;;0.00;0.00;;;;;;;;;;6245766;23;20061;-79
2023/12/28 00:24:06;;;;;;;0.00;0.00;;;;;;;;;;6245191;23;20035;-80
2023/12/28 00:26:32;;;;;;;0.00;0.00;;;;;;;;;;6248367;23;20466;-79
2023/12/28 00:28:57;;;;;;;0.00;0.00;;;;;;;;;;6246219;23;20105;-79
2023/12/28 00:31:23;;;;;;;0.00;0.00;;;;;;;;;;6245314;23;20317;-79
2023/12/28 00:33:50;;;;;;;0.00;0.00;;;;;;;;;;6245384;23;20010;-80
2023/12/28 00:36:16;;;;;;;0.00;0.00;;;;;;;;;;6245046;23;20004;-79
2023/12/28 00:38:42;;;;;;;0.00;0.00;;;;;;;;;;6245608;23;20042;-79
2023/12/28 00:41:07;;;;;;;0.00;0.00;;;;;;;;;;6244790;23;20000;-78
2023/12/28 00:43:33;;;;;;;0.00;0.00;;;;;;;;;;6245460;23;20008;-79
2023/12/28 00:45:58;;;;;;;0.00;0.00;;;;;;;;;;6250004;23;20414;-78
2023/12/28 00:48:24;;;;;;;0.00;0.00;;;;;;;;;;6218290;23;20466;-78
2023/12/28 00:50:49;;;;;;;0.00;0.00;;;;;;;;;;6245496;23;20001;-79
2023/12/28 00:53:15;;;;;;;0.00;0.00;;;;;;;;;;6245149;23;20075;-78
2023/12/28 00:55:40;;;;;;;0.00;0.00;;;;;;;;;;6218285;23;20014;-79
2023/12/28 00:58:06;;;;;;;0.00;0.00;;;;;;;;;;6246530;23;20015;-78
2023/12/28 01:00:31;;;;;;;0.00;0.00;;;;;;;;;;6249478;23;20050;-79
2023/12/28 01:02:57;;;;;;;0.00;0.00;;;;;;;;;;6220485;23;20008;-80
2023/12/28 01:05:25;;;;;;;0.00;0.00;;;;;;;;;;6246863;23;20530;-78
2023/12/28 01:07:51;;;;;;;0.00;0.00;;;;;;;;;;6245795;23;20000;-79
2023/12/28 01:10:17;;;;;;;0.00;0.00;;;;;;;;;;6244940;23;20391;-79
2023/12/28 01:12:42;;;;;;;0.00;0.00;;;;;;;;;;6244745;23;20008;-78
2023/12/28 01:15:08;;;;;;;0.00;0.00;;;;;;;;;;6244715;23;20019;-78
2023/12/28 01:17:33;;;;;;;0.00;0.00;;;;;;;;;;6244770;23;20010;-79
2023/12/28 01:19:59;;;;;;;0.00;0.00;;;;;;;;;;6244768;23;19996;-80
2023/12/28 01:22:25;;;;;;;0.00;0.00;;;;;;;;;;6192856;23;20004;-80
2023/12/28 01:24:50;;;;;;;0.00;0.00;;;;;;;;;;6244961;23;20034;-78
2023/12/28 01:27:16;;;;;;;0.00;0.00;;;;;;;;;;6246060;23;20161;-78
2023/12/28 01:29:41;;;;;;;0.00;0.00;;;;;;;;;;6218699;23;20321;-78
2023/12/28 01:32:07;;;;;;;0.00;0.00;;;;;;;;;;6245060;23;20008;-79
2023/12/28 01:34:32;;;;;;;0.00;0.00;;;;;;;;;;6218316;23;20074;-78
2023/12/28 01:36:58;;;;;;;0.00;0.00;;;;;;;;;;6244893;23;20110;-78
2023/12/28 01:39:23;;;;;;;0.00;0.00;;;;;;;;;;6244930;23;20139;-80
2023/12/28 01:41:49;;;;;;;0.00;0.00;;;;;;;;;;6242766;23;20015;-77
2023/12/28 01:44:15;;;;;;;0.00;0.00;;;;;;;;;;6244370;23;20016;-79
2023/12/28 01:46:40;;;;;;;0.00;0.00;;;;;;;;;;6223334;23;20000;-78
2023/12/28 01:49:06;;;;;;;0.00;0.00;;;;;;;;;;6247326;23;20000;-77
2023/12/28 01:51:32;;;;;;;0.00;0.00;;;;;;;;;;6194759;23;20071;-78
2023/12/28 01:53:57;;;;;;;0.00;0.00;;;;;;;;;;6218350;23;20050;-78
2023/12/28 01:56:23;;;;;;;0.00;0.00;;;;;;;;;;6244589;23;20030;-78
2023/12/28 01:58:49;;;;;;;0.00;0.00;;;;;;;;;;6192722;23;20034;-78
2023/12/28 02:01:14;;;;;;;0.00;0.00;;;;;;;;;;6168122;23;20004;-79
2023/12/28 02:03:40;;;;;;;0.00;0.00;;;;;;;;;;6192770;23;20004;-79
2023/12/28 02:06:06;;;;;;;0.00;0.00;;;;;;;;;;6227361;23;20008;-78
2023/12/28 02:08:32;;;;;;;0.00;0.00;;;;;;;;;;6248400;23;20062;-78
2023/12/28 02:10:58;;;;;;;0.00;0.00;;;;;;;;;;6258616;22;20004;-78
2023/12/28 02:13:24;;;;;;;0.00;0.00;;;;;;;;;;6271838;22;20004;-77
2023/12/28 02:15:54;;;;;;;0.00;0.00;;;;;;;;;;6218295;23;20050;-79
2023/12/28 02:18:21;;;;;;;0.00;0.00;;;;;;;;;;6193890;23;20409;-79
2023/12/28 02:20:47;;;;;;;0.00;0.00;;;;;;;;;;6196179;23;20064;-79
2023/12/28 02:23:12;;;;;;;0.00;0.00;;;;;;;;;;6171616;23;20390;-79
2023/12/28 02:25:38;;;;;;;0.00;0.00;;;;;;;;;;6218567;23;20047;-79
2023/12/28 02:28:04;;;;;;;0.00;0.00;;;;;;;;;;6248038;23;20015;-78
2023/12/28 02:30:29;;;;;;;0.00;0.00;;;;;;;;;;6244648;23;20000;-79
2023/12/28 02:33:04;;;;;;;0.00;0.00;;;;;;;;;;6217991;23;20012;-78
2023/12/28 02:35:33;;;;;;;0.00;0.00;;;;;;;;;;6244012;23;20416;-80
2023/12/28 02:38:01;;;;;;;0.00;0.00;;;;;;;;;;6244221;23;20487;-78
2023/12/28 02:40:27;;;;;;;0.00;0.00;;;;;;;;;;6217426;23;20010;-77
2023/12/28 02:42:52;;;;;;;0.00;0.00;;;;;;;;;;6244332;23;20004;-77
2023/12/28 02:45:18;;;;;;;0.00;0.00;;;;;;;;;;6217582;23;20427;-79
2023/12/28 02:47:44;;;;;;;0.00;0.00;;;;;;;;;;6250562;23;20007;-77
2023/12/28 02:50:09;;;;;;;0.00;0.00;;;;;;;;;;6216836;23;20028;-79
2023/12/28 02:52:35;;;;;;;0.00;0.00;;;;;;;;;;6244494;23;20001;-79
2023/12/28 02:55:00;;;;;;;0.00;0.00;;;;;;;;;;6243792;23;20359;-79
2023/12/28 02:57:26;;;;;;;0.00;0.00;;;;;;;;;;6244735;23;20004;-79
2023/12/28 02:59:51;;;;;;;0.00;0.00;;;;;;;;;;6217151;23;20066;-77
2023/12/28 03:02:17;;;;;;;0.00;0.00;;;;;;;;;;6244050;23;20008;-78
2023/12/28 03:04:42;;;;;;;0.00;0.00;;;;;;;;;;6243282;22;20069;-79
2023/12/28 03:07:08;;;;;;;0.00;0.00;;;;;;;;;;6247764;23;20005;-79
2023/12/28 03:09:34;;;;;;;0.00;0.00;;;;;;;;;;6246482;23;20331;-78
2023/12/28 03:12:00;;;;;;;0.00;0.00;;;;;;;;;;6243957;23;20095;-79
2023/12/28 03:14:26;;;;;;;0.00;0.00;;;;;;;;;;6243804;23;20011;-77
2023/12/28 03:16:51;;;;;;;0.00;0.00;;;;;;;;;;6244121;23;20005;-79
2023/12/28 03:19:17;;;;;;;0.00;0.00;;;;;;;;;;6191549;23;20004;-79
2023/12/28 03:21:43;;;;;;;0.00;0.00;;;;;;;;;;6192216;23;20015;-78
2023/12/28 03:24:08;;;;;;;0.00;0.00;;;;;;;;;;6216956;23;20083;-78
2023/12/28 03:26:38;;;;;;;0.00;0.00;;;;;;;;;;6246333;23;20004;-78
2023/12/28 03:29:05;;;;;;;0.00;0.00;;;;;;;;;;6226607;23;20000;-80
2023/12/28 03:31:31;;;;;;;0.00;0.00;;;;;;;;;;6243705;23;20000;-77
2023/12/28 03:33:56;;;;;;;0.00;0.00;;;;;;;;;;6167337;23;20007;-79
2023/12/28 03:36:23;;;;;;;0.00;0.00;;;;;;;;;;6243881;23;20398;-78
2023/12/28 03:38:48;;;;;;;0.00;0.00;;;;;;;;;;6243931;23;20393;-79
2023/12/28 03:41:18;;;;;;;0.00;0.00;;;;;;;;;;6243940;23;20004;-79
2023/12/28 03:43:44;;;;;;;0.00;0.00;;;;;;;;;;6244134;23;20050;-79
2023/12/28 03:46:10;;;;;;;0.00;0.00;;;;;;;;;;6243482;23;20008;-79
2023/12/28 03:48:36;;;;;;;0.00;0.00;;;;;;;;;;6248566;23;20007;-79
2023/12/28 03:51:02;;;;;;;0.00;0.00;;;;;;;;;;6217016;23;20010;-78
2023/12/28 03:53:28;;;;;;;0.00;0.00;;;;;;;;;;6243829;23;20061;-79
2023/12/28 03:55:53;;;;;;;0.00;0.00;;;;;;;;;;6244007;23;20032;-78
2023/12/28 03:58:19;;;;;;;0.00;0.00;;;;;;;;;;6217178;23;20431;-79
2023/12/28 04:00:44;;;;;;;0.00;0.00;;;;;;;;;;6243833;23;20004;-79
2023/12/28 04:03:10;;;;;;;0.00;0.00;;;;;;;;;;6243267;23;20412;-79
2023/12/28 04:05:35;;;;;;;0.00;0.00;;;;;;;;;;6243366;22;20016;-78
2023/12/28 04:08:01;;;;;;;0.00;0.00;;;;;;;;;;6245195;23;19996;-79
2023/12/28 04:10:33;;;;;;;0.00;0.00;;;;;;;;;;6244353;23;20010;-78
2023/12/28 04:12:59;;;;;;;0.00;0.00;;;;;;;;;;6242624;23;20003;-79
2023/12/28 04:15:27;;;;;;;0.00;0.00;;;;;;;;;;6216715;23;20410;-78
2023/12/28 04:17:53;;;;;;;0.00;0.00;;;;;;;;;;6243269;23;20000;-79
2023/12/28 04:20:18;;;;;;;0.00;0.00;;;;;;;;;;6217277;23;20416;-78
2023/12/28 04:22:44;;;;;;;0.00;0.00;;;;;;;;;;6243224;23;20419;-78
2023/12/28 04:25:10;;;;;;;0.00;0.00;;;;;;;;;;6243789;23;20005;-79
2023/12/28 04:27:36;;;;;;;0.00;0.00;;;;;;;;;;6194112;23;20075;-78
2023/12/28 04:30:02;;;;;;;0.00;0.00;;;;;;;;;;6251636;23;20334;-79
2023/12/28 04:32:27;;;;;;;0.00;0.00;;;;;;;;;;6218574;23;20027;-78
2023/12/28 04:34:53;;;;;;;0.00;0.00;;;;;;;;;;6245410;23;20011;-78
2023/12/28 04:37:20;;;;;;;0.00;0.00;;;;;;;;;;6245811;23;20000;-78
2023/12/28 04:39:46;;;;;;;0.00;0.00;;;;;;;;;;6245077;23;20008;-78
2023/12/28 04:42:11;;;;;;;0.00;0.00;;;;;;;;;;6244578;23;20012;-79
2023/12/28 04:44:38;;;;;;;0.00;0.00;;;;;;;;;;6244634;23;20008;-78
2023/12/28 04:47:04;;;;;;;0.00;0.00;;;;;;;;;;6245340;23;20053;-78
2023/12/28 04:49:29;;;;;;;0.00;0.00;;;;;;;;;;6226006;23;20004;-80
2023/12/28 04:51:55;;;;;;;0.00;0.00;;;;;;;;;;6245367;23;20000;-78
2023/12/28 04:54:21;;;;;;;0.00;0.00;;;;;;;;;;6245029;23;20008;-79
2023/12/28 04:56:46;;;;;;;0.00;0.00;;;;;;;;;;6245291;23;20497;-78
2023/12/28 04:59:12;;;;;;;0.00;0.00;;;;;;;;;;6244953;23;20004;-78
2023/12/28 05:01:44;;;;;;;0.00;0.00;;;;;;;;;;6244893;23;20050;-79
2023/12/28 05:04:10;;;;;;;0.00;0.00;;;;;;;;;;6218058;23;20012;-78
2023/12/28 05:06:35;;;;;;;0.00;0.00;;;;;;;;;;6245380;23;20011;-78
2023/12/28 05:09:01;;;;;;;0.00;0.00;;;;;;;;;;6255254;23;20008;-79
2023/12/28 05:11:27;;;;;;;0.00;0.00;;;;;;;;;;6217695;23;20000;-78
2023/12/28 05:13:53;;;;;;;0.00;0.00;;;;;;;;;;6217335;23;20011;-78
2023/12/28 05:16:18;;;;;;;0.00;0.00;;;;;;;;;;6244895;23;20438;-79
2023/12/28 05:18:44;;;;;;;0.00;0.00;;;;;;;;;;6243797;23;20031;-78
2023/12/28 05:21:09;;;;;;;0.00;0.00;;;;;;;;;;6244480;23;20000;-79
2023/12/28 05:23:35;;;;;;;0.00;0.00;;;;;;;;;;6244971;23;20004;-80
2023/12/28 05:26:00;;;;;;;0.00;0.00;;;;;;;;;;6219621;23;20083;-79
2023/12/28 05:28:26;;;;;;;0.00;0.00;;;;;;;;;;6247761;23;20018;-79
2023/12/28 05:30:51;;;;;;;0.00;0.00;;;;;;;;;;6251930;23;19996;-79
2023/12/28 05:33:17;;;;;;;0.00;0.00;;;;;;;;;;6247720;23;20079;-78
2023/12/28 05:35:43;;;;;;;0.00;0.00;;;;;;;;;;6248425;23;20011;-78
2023/12/28 05:38:08;;;;;;;0.00;0.00;;;;;;;;;;6249084;23;20000;-79
2023/12/28 05:40:34;;;;;;;0.00;0.00;;;;;;;;;;6248168;23;20024;-79
2023/12/28 05:42:59;;;;;;;0.00;0.00;;;;;;;;;;6221082;23;20380;-79
2023/12/28 05:45:25;;;;;;;0.00;0.00;;;;;;;;;;6244893;23;20015;-79
2023/12/28 05:47:50;;;;;;;0.00;0.00;;;;;;;;;;6245699;23;20424;-79
2023/12/28 05:50:16;;;;;;;0.00;0.00;;;;;;;;;;6249542;23;20015;-79
2023/12/28 05:52:41;;;;;;;0.00;0.00;;;;;;;;;;6218708;23;20420;-79
2023/12/28 05:55:07;;;;;;;0.00;0.00;;;;;;;;;;6245669;23;20008;-78
2023/12/28 05:57:33;;;;;;;0.00;0.00;;;;;;;;;;6244247;23;20000;-78
2023/12/28 05:59:58;;;;;;;0.00;0.00;;;;;;;;;;6244781;23;20038;-77
2023/12/28 06:02:24;;;;;;;0.00;0.00;;;;;;;;;;6245292;23;20038;-77
2023/12/28 06:04:49;;;;;;;0.00;0.00;;;;;;;;;;6217657;23;20019;-79
2023/12/28 06:07:15;;;;;;;0.00;0.00;;;;;;;;;;6218054;23;20343;-78
2023/12/28 06:09:41;;;;;;;0.00;0.00;;;;;;;;;;6246075;23;20004;-79
2023/12/28 06:12:07;;;;;;;0.00;0.00;;;;;;;;;;6247250;23;20004;-78
2023/12/28 06:14:32;;;;;;;0.00;0.00;;;;;;;;;;6242838;23;20042;-78
2023/12/28 06:16:58;;;;;;;0.00;0.00;;;;;;;;;;6244664;23;20071;-78
2023/12/28 06:19:23;;;;;;;0.00;0.00;;;;;;;;;;6245839;23;20944;-77
2023/12/28 06:21:49;;;;;;;0.00;0.00;;;;;;;;;;6247335;23;20370;-79
2023/12/28 06:24:15;;;;;;;0.00;0.00;;;;;;;;;;6247530;23;20004;-78
2023/12/28 06:26:43;;;;;;;0.00;0.00;;;;;;;;;;6244394;23;20348;-77
2023/12/28 06:29:09;;;;;;;0.00;0.00;;;;;;;;;;6244838;23;20058;-77
2023/12/28 06:31:36;;;;;;;0.00;0.00;;;;;;;;;;6247708;23;20053;-79
2023/12/28 06:34:05;;;;;;;0.00;0.00;;;;;;;;;;6245688;23;19996;-78
2023/12/28 06:36:31;;;;;;;0.00;0.00;;;;;;;;;;6244890;23;20034;-76
2023/12/28 06:38:57;;;;;;;0.00;0.00;;;;;;;;;;6217682;23;20000;-78
2023/12/28 06:41:23;;;;;;;0.00;0.00;;;;;;;;;;6217363;23;20355;-78
2023/12/28 06:43:48;;;;;;;0.00;0.00;;;;;;;;;;6244420;23;20447;-78
2023/12/28 06:46:23;;;;;;;0.00;0.00;;;;;;;;;;6244517;23;20015;-80
2023/12/28 06:48:49;;;;;;;0.00;0.00;;;;;;;;;;6224645;23;20008;-78
2023/12/28 06:51:21;;;;;;;0.00;0.00;;;;;;;;;;6218305;23;20479;-79
2023/12/28 06:53:47;;;;;;;0.00;0.00;;;;;;;;;;6244069;23;20016;-79
2023/12/28 06:56:12;;;;;;;0.00;0.00;;;;;;;;;;6244352;23;20004;-78
2023/12/28 06:58:39;;;;;;;0.00;0.00;;;;;;;;;;6244969;23;20047;-78
2023/12/28 07:01:04;;;;;;;0.00;0.00;;;;;;;;;;6244624;23;20058;-78
2023/12/28 07:03:32;;;;;;;0.00;0.00;;;;;;;;;;6244352;23;20012;-77
2023/12/28 07:05:58;;;;;;;0.00;0.00;;;;;;;;;;6244359;23;20069;-78
2023/12/28 07:08:24;;;;;;;0.00;0.00;;;;;;;;;;6253899;23;20008;-78
2023/12/28 07:10:49;;;;;;;0.05;0.00;;;;;;;;;;6220618;23;20030;-79
2023/12/28 07:13:15;;;;;;;0.00;0.00;;;;;;;;;;6244376;23;20336;-78
2023/12/28 07:15:40;;;;;;;0.00;0.00;;;;;;;;;;6244358;23;20083;-77
2023/12/28 07:18:06;;;;;;;0.00;0.00;;;;;;;;;;6242398;23;20011;-78
2023/12/28 07:20:31;;;;;;;0.00;0.00;;;;;;;;;;6244061;23;20104;-77
2023/12/28 07:22:57;;;;;;;0.00;0.00;;;;;;;;;;6243030;23;20003;-78
2023/12/28 07:25:22;;;;;;;0.00;0.00;;;;;;;;;;6191717;23;20011;-85
2023/12/28 07:27:49;;;;;;;0.00;0.00;;;;;;;;;;6244616;23;20951;-81
2023/12/28 07:30:16;;;;;;;0.00;0.00;;;;;;;;;;6225695;23;20046;-84
2023/12/28 07:32:42;;;;;;;0.00;0.00;;;;;;;;;;6245852;23;20032;-87
2023/12/28 07:35:08;;;;;;;0.00;0.00;;;;;;;;;;6244268;23;20016;-82
2023/12/28 07:37:34;;;;;;;0.00;0.00;;;;;;;;;;6217215;23;20004;-80
2023/12/28 07:39:59;;;;;;;0.00;0.00;;;;;;;;;;6217187;23;20011;-78
2023/12/28 07:42:25;;;;;;;0.00;0.00;;;;;;;;;;6244095;23;20067;-79
2023/12/28 07:44:50;;;;;;;0.00;0.00;;;;;;;;;;6243934;23;20031;-78
2023/12/28 07:47:16;;;;;;;0.00;0.00;;;;;;;;;;6244482;23;20058;-81
2023/12/28 07:49:41;;;;;;;0.00;0.00;;;;;;;;;;6245420;23;19996;-80
2023/12/28 07:52:07;;;;;;;0.00;0.00;;;;;;;;;;6244007;23;20004;-83
2023/12/28 07:54:32;;;;;;;0.00;0.00;;;;;;;;;;6243703;23;20011;-85
2023/12/28 07:56:59;;;;;;;0.00;0.00;;;;;;;;;;6218157;23;20069;-83
2023/12/28 07:59:24;;;;;;;0.00;0.00;;;;;;;;;;6244354;23;20054;-84
2023/12/28 08:01:50;;;;;;;0.00;0.00;;;;;;;;;;6245082;23;20000;-81
2023/12/28 08:04:15;;;;;;;0.00;0.00;;;;;;;;;;6244163;23;20004;-81
2023/12/28 08:06:41;;;;;;;0.00;0.00;;;;;;;;;;6219564;23;20031;-80
2023/12/28 08:09:07;;;;;;;0.00;0.00;;;;;;;;;;6251229;23;19996;-82
2023/12/28 08:11:32;;;;;;;0.00;0.00;;;;;;;;;;6252715;23;20008;-85
2023/12/28 08:13:58;;;;;;;0.00;0.00;;;;;;;;;;6251683;23;19997;-86
2023/12/28 08:16:23;;;;;;;0.00;0.00;;;;;;;;;;6250934;23;20019;-83
2023/12/28 08:18:49;;;;;;;0.00;0.00;;;;;;;;;;6247286;23;20023;-83
2023/12/28 08:21:14;;;;;;;0.00;0.00;;;;;;;;;;6248217;23;20091;-84
2023/12/28 08:23:40;;;;;;;0.00;0.00;;;;;;;;;;6248459;23;20048;-82
2023/12/28 08:26:06;;;;;;;0.00;0.00;;;;;;;;;;6253376;23;20004;-83
2023/12/28 08:28:32;;;;;;;0.00;0.00;;;;;;;;;;6235099;23;20443;-80
2023/12/28 08:30:58;;;;;;;0.00;0.00;;;;;;;;;;6257208;23;20000;-77
2023/12/28 08:33:23;;;;;;;0.00;0.00;;;;;;;;;;6221292;23;20008;-77
2023/12/28 08:35:49;;;;;;;0.00;0.00;;;;;;;;;;6171973;23;20443;-77
2023/12/28 08:38:14;;;;;;;0.00;0.00;;;;;;;;;;6250332;23;20012;-78
2023/12/28 08:40:40;;;;;;;0.00;0.00;;;;;;;;;;6266287;22;20083;-79
2023/12/28 08:43:05;;;;;;;0.00;0.00;;;;;;;;;;6274033;22;19992;-80
2023/12/28 08:45:31;;;;;;;0.00;0.00;;;;;;;;;;6273721;22;19988;-79
2023/12/28 08:47:56;;;;;;;0.00;0.00;;;;;;;;;;6272566;23;20062;-79
2023/12/28 08:50:22;;;;;;;0.00;0.00;;;;;;;;;;6194220;23;20060;-79
2023/12/28 08:52:47;;;;;;;0.00;0.00;;;;;;;;;;6244572;23;20027;-81
2023/12/28 08:55:13;;;;;;;0.00;0.00;;;;;;;;;;6246895;23;20675;-80
2023/12/28 08:57:39;;;;;;;0.00;0.00;;;;;;;;;;6246256;23;20011;-80
2023/12/28 09:00:06;;;;;;;0.00;0.00;;;;;;;;;;6218974;23;20008;-80
2023/12/28 09:02:31;;;;;;;0.00;0.00;;;;;;;;;;6168820;23;20082;-79
2023/12/28 09:04:58;;;;;;;0.00;0.00;;;;;;;;;;6218513;23;20434;-79
2023/12/28 09:07:23;;;;;;;0.00;0.00;;;;;;;;;;6245337;23;20010;-80
2023/12/28 09:09:49;;;;;;;0.00;0.00;;;;;;;;;;6255059;23;20008;-80
2023/12/28 09:12:15;;;;;;;0.00;0.00;;;;;;;;;;6249630;23;20007;-78
2023/12/28 09:14:43;;;;;;;0.00;0.00;;;;;;;;;;6245775;23;20078;-79
2023/12/28 09:17:09;;;;;;;0.00;0.00;;;;;;;;;;6245546;23;20291;-79
2023/12/28 09:19:34;;;;;;;0.00;0.00;;;;;;;;;;6245331;23;20364;-78
2023/12/28 09:22:00;;;;;;;0.00;0.00;;;;;;;;;;6217048;23;20010;-78
2023/12/28 09:24:25;;;;;;;0.00;0.00;;;;;;;;;;6218379;23;20008;-78
2023/12/28 09:26:51;;;;;;;0.00;0.00;;;;;;;;;;6245208;23;20327;-79
2023/12/28 09:29:16;;;;;;;0.00;0.00;;;;;;;;;;6246046;23;20000;-79
2023/12/28 09:31:42;;;;;;;0.00;0.00;;;;;;;;;;6250379;23;20000;-79
2023/12/28 09:34:07;;;;;;;0.00;0.00;;;;;;;;;;6244806;23;20043;-79
2023/12/28 09:36:33;;;;;;;0.00;0.00;;;;;;;;;;6217622;23;20089;-79
2023/12/28 09:39:02;;;;;;;0.00;0.00;;;;;;;;;;6245180;23;20007;-76
2023/12/28 09:41:27;;;;;;;0.00;0.00;;;;;;;;;;6219890;23;20004;-80
2023/12/28 09:43:54;;;;;;;0.00;0.00;;;;;;;;;;6168257;23;20138;-79
2023/12/28 09:46:20;;;;;;;0.00;0.00;;;;;;;;;;6218155;23;20008;-79
2023/12/28 09:48:46;;;;;;;0.00;0.00;;;;;;;;;;6244655;23;20000;-79
2023/12/28 09:51:12;;;;;;;0.00;0.00;;;;;;;;;;6221248;23;20011;-79
2023/12/28 09:53:37;;;;;;;0.00;0.00;;;;;;;;;;6248586;23;20411;-79
2023/12/28 09:56:03;;;;;;;0.00;0.00;;;;;;;;;;6244950;23;20059;-78
2023/12/28 09:58:31;;;;;;;0.00;0.00;;;;;;;;;;6192819;23;20007;-79
2023/12/28 10:00:56;;;;;;;0.00;0.00;;;;;;;;;;6218254;23;20428;-79
2023/12/28 10:03:22;;;;;;;0.00;0.00;;;;;;;;;;6218329;23;20011;-79
2023/12/28 10:05:48;;;;;;;0.00;0.00;;;;;;;;;;6243982;22;20107;-80
2023/12/28 10:08:14;;;;;;;0.00;0.00;;;;;;;;;;6244874;23;20000;-79
2023/12/28 10:10:40;;;;;;;0.00;0.00;;;;;;;;;;6247571;23;20082;-79
2023/12/28 10:13:07;;;;;;;0.00;0.00;;;;;;;;;;6247825;23;20435;-79
2023/12/28 10:15:33;;;;;;;0.00;0.00;;;;;;;;;;6244583;23;20083;-79
2023/12/28 10:17:59;;;;;;;0.00;0.00;;;;;;;;;;6244893;23;20001;-79
2023/12/28 10:20:28;;;;;;;0.00;0.00;;;;;;;;;;6244714;23;19996;-78
2023/12/28 10:22:53;;;;;;;0.00;0.00;;;;;;;;;;6217543;23;20118;-78
2023/12/28 10:25:19;;;;;;;0.00;0.00;;;;;;;;;;6217524;23;20004;-80
2023/12/28 10:27:44;;;;;;;0.00;0.00;;;;;;;;;;6218253;23;20004;-78
2023/12/28 10:30:10;;;;;;;0.00;0.00;;;;;;;;;;6245266;23;19995;-77
2023/12/28 10:32:39;;;;;;;0.00;0.00;;;;;;;;;;6222013;23;20352;-79
2023/12/28 10:35:05;;;;;;;0.00;0.00;;;;;;;;;;6245734;23;20126;-79
2023/12/28 10:37:31;;;;;;;0.00;0.00;;;;;;;;;;6192750;23;20004;-78
2023/12/28 10:39:57;;;;;;;0.00;0.00;;;;;;;;;;6218097;23;20383;-80
2023/12/28 10:42:31;;;;;;;0.00;0.00;;;;;;;;;;6192731;23;20065;-80
2023/12/28 10:45:06;;;;;;;0.00;0.00;;;;;;;;;;6244489;23;20056;-80
2023/12/28 10:47:34;;;;;;;0.00;0.00;;;;;;;;;;6218122;23;20008;-80
2023/12/28 10:50:02;;;;;;;0.00;0.00;;;;;;;;;;6245638;23;20000;-81
2023/12/28 10:52:28;;;;;;;0.00;0.00;;;;;;;;;;6249985;23;20016;-80
2023/12/28 10:55:03;;;;;;;0.00;0.00;;;;;;;;;;6219921;23;20643;-82
2023/12/28 10:57:40;;;;;;;0.00;0.00;;;;;;;;;;6195917;23;20000;-80
2023/12/28 11:00:14;;;;;;;0.00;0.00;;;;;;;;;;6196757;23;19996;-80
2023/12/28 11:02:44;;;;;;;0.00;0.00;;;;;;;;;;6196448;23;20424;-81
2023/12/28 11:05:10;;;;;;;0.00;0.00;;;;;;;;;;6170263;23;20491;-80
2023/12/28 11:07:35;;;;;;;0.00;0.00;;;;;;;;;;6194605;23;20016;-81
2023/12/28 11:10:04;;;;;;;0.00;0.00;;;;;;;;;;6219625;23;20453;-80
2023/12/28 11:12:31;;;;;;;0.00;0.00;;;;;;;;;;6231902;23;20076;-81
2023/12/28 11:14:56;;;;;;;0.00;0.00;;;;;;;;;;6195056;23;20012;-82
2023/12/28 11:17:22;;;;;;;0.00;0.00;;;;;;;;;;6194966;23;20010;-81
2023/12/28 11:19:47;;;;;;;0.00;0.00;;;;;;;;;;6194657;23;20004;-81
2023/12/28 11:22:13;;;;;;;0.00;0.00;;;;;;;;;;6220943;23;20000;-82
2023/12/28 11:24:39;;;;;;;0.00;0.00;;;;;;;;;;6219296;23;20008;-80
2023/12/28 11:27:05;;;;;;;0.00;0.00;;;;;;;;;;6247919;23;20074;-81
2023/12/28 11:29:31;;;;;;;0.00;0.00;;;;;;;;;;6247553;23;20061;-79
2023/12/28 11:31:57;;;;;;;0.00;0.00;;;;;;;;;;6250776;23;20012;-79
2023/12/28 11:34:29;;;;;;;0.00;0.00;;;;;;;;;;6174458;23;20008;-81
2023/12/28 11:36:56;;;;;;;0.00;0.00;;;;;;;;;;6218438;23;20007;-82
2023/12/28 11:39:43;;;;;;;0.00;0.00;;;;;;;;;;6169191;23;20336;-82
2023/12/28 11:42:09;;;;;;;0.00;0.00;;;;;;;;;;6230958;23;20007;-81
2023/12/28 11:44:44;;;;;;;0.00;0.00;;;;;;;;;;6229577;23;20000;-80
2023/12/28 11:47:13;;;;;;;0.00;0.00;;;;;;;;;;6249544;23;20408;-81
2023/12/28 11:49:40;;;;;;;0.00;0.00;;;;;;;;;;6246811;23;20004;-81
2023/12/28 11:52:06;;;;;;;0.00;0.00;;;;;;;;;;6224225;23;20416;-81
2023/12/28 11:54:32;;;;;;;0.00;0.00;;;;;;;;;;6251202;23;20101;-81
2023/12/28 11:56:57;;;;;;;0.00;0.00;;;;;;;;;;6246789;23;20079;-82
2023/12/28 11:59:23;;;;;;;0.00;0.00;;;;;;;;;;6245799;23;20004;-80
2023/12/28 12:01:54;;;;;;;0.00;0.00;;;;;;;;;;6217353;23;20009;-81
2023/12/28 12:04:20;;;;;;;0.00;0.00;;;;;;;;;;6217970;23;20012;-81
2023/12/28 12:06:50;;;;;;;0.00;0.00;;;;;;;;;;6244685;23;20346;-81
2023/12/28 12:09:15;;;;;;;0.00;0.00;;;;;;;;;;6194463;23;20004;-81
2023/12/28 12:11:41;;;;;;;0.00;0.00;;;;;;;;;;6245303;23;20004;-80
2023/12/28 12:14:10;;;;;;;0.00;0.00;;;;;;;;;;6246635;23;20004;-81
2023/12/28 12:16:37;;;;;;;0.00;0.00;;;;;;;;;;6244983;23;20011;-80
2023/12/28 12:19:06;;;;;;;0.00;0.00;;;;;;;;;;6245747;23;20004;-82
2023/12/28 12:21:33;;;;;;;0.00;0.00;;;;;;;;;;6219221;23;20039;-81
2023/12/28 12:23:59;;;;;;;0.00;0.00;;;;;;;;;;6246551;23;20420;-81
2023/12/28 12:26:26;;;;;;;0.00;0.00;;;;;;;;;;6242909;23;20019;-79
2023/12/28 12:28:51;;;;;;;0.00;0.00;;;;;;;;;;6244658;23;20051;-81
2023/12/28 12:31:17;;;;;;;0.00;0.00;;;;;;;;;;6246030;23;20008;-80
2023/12/28 12:33:42;;;;;;;0.00;0.00;;;;;;;;;;6247856;23;20007;-79
2023/12/28 12:36:08;;;;;;;0.00;0.00;;;;;;;;;;6218065;23;20398;-79
2023/12/28 12:38:34;;;;;;;0.00;0.00;;;;;;;;;;6244119;23;20027;-80
2023/12/28 12:40:59;;;;;;;0.00;0.00;;;;;;;;;;6245252;23;20069;-79
2023/12/28 12:43:26;;;;;;;0.00;0.00;;;;;;;;;;6217602;23;20007;-79
2023/12/28 12:45:52;;;;;;;0.00;0.00;;;;;;;;;;6243092;23;20412;-80
2023/12/28 12:48:18;;;;;;;0.00;0.00;;;;;;;;;;6243128;23;20004;-80
2023/12/28 12:50:44;;;;;;;0.00;0.00;;;;;;;;;;6216529;23;20328;-80
2023/12/28 12:53:09;;;;;;;0.00;0.00;;;;;;;;;;6245868;23;20057;-81
2023/12/28 12:55:38;;;;;;;0.00;0.00;;;;;;;;;;6244937;23;20027;-79
2023/12/28 12:58:05;;;;;;;0.00;0.00;;;;;;;;;;6243627;23;20481;-80
2023/12/28 13:00:30;;;;;;;0.00;0.00;;;;;;;;;;6245444;23;20066;-79
2023/12/28 13:02:58;;;;;;;0.00;0.00;;;;;;;;;;6218710;23;20000;-79
2023/12/28 13:05:25;;;;;;;0.00;0.00;;;;;;;;;;6219098;23;20024;-79
2023/12/28 13:07:50;;;;;;;0.00;0.00;;;;;;;;;;6245009;23;20007;-79
2023/12/28 13:10:16;;;;;;;0.00;0.00;;;;;;;;;;6245327;23;20000;-78
2023/12/28 13:12:41;;;;;;;0.00;0.00;;;;;;;;;;6245122;23;20008;-79
2023/12/28 13:15:09;;;;;;;0.00;0.00;;;;;;;;;;6245707;23;20004;-77
2023/12/28 13:20:12;;;;;;;0.00;0.00;;;;;;;;;;6271878;22;20020;-83
2023/12/28 13:22:38;;;;;;;0.00;0.00;;;;;;;;;;6223718;22;20027;-83
2023/12/28 13:25:04;;;;;;;0.00;0.00;;;;;;;;;;6248993;22;20004;-83
2023/12/28 13:27:31;;;;;;;0.00;0.00;;;;;;;;;;6198514;22;20003;-83
2023/12/28 13:29:56;;;;;;;0.00;0.00;;;;;;;;;;6223877;22;20003;-83
2023/12/28 13:32:23;;;;;;;0.00;0.00;;;;;;;;;;6246212;22;20061;-83
2023/12/28 13:34:50;;;;;;;0.00;0.00;;;;;;;;;;6287657;22;19983;-83
2023/12/28 13:37:16;;;;;;;0.00;0.00;;;;;;;;;;6278239;22;20014;-83
2023/12/28 13:39:42;;;;;;;0.00;0.00;;;;;;;;;;6304816;22;20000;-83
2023/12/28 13:42:07;;;;;;;0.00;0.00;;;;;;;;;;6277715;22;20000;-83
2023/12/28 13:44:35;;;;;;;0.00;0.00;;;;;;;;;;6251383;22;20014;-81
2023/12/28 13:47:01;;;;;;;0.00;0.00;;;;;;;;;;6273359;22;20004;-82
2023/12/28 13:49:27;;;;;;;0.00;0.00;;;;;;;;;;6274419;22;20003;-82
2023/12/28 13:51:52;;;;;;;0.00;0.00;;;;;;;;;;6225775;22;20003;-81
2023/12/28 13:54:19;;;;;;;0.00;0.00;;;;;;;;;;6277795;22;20011;-82
2023/12/28 13:56:45;;;;;;;0.00;0.00;;;;;;;;;;6278150;22;19987;-81
2023/12/28 13:59:11;;;;;;;0.00;0.00;;;;;;;;;;6303937;22;20011;-81
2023/12/28 14:01:37;;;;;;;0.00;0.00;;;;;;;;;;6252409;22;20008;-82
2023/12/28 14:04:03;;;;;;;0.00;0.00;;;;;;;;;;6248592;22;20026;-83
2023/12/28 14:06:28;;;;;;;0.00;0.00;;;;;;;;;;6274967;22;20008;-83
2023/12/28 14:08:54;;;;;;;0.00;0.00;;;;;;;;;;6302418;22;19992;-82
2023/12/28 14:11:20;;;;;;;0.00;0.00;;;;;;;;;;6278728;22;20061;-83
2023/12/28 14:13:45;;;;;;;0.00;0.00;;;;;;;;;;6248208;22;20000;-83
2023/12/28 14:16:11;;;;;;;0.32;0.00;;;;;;;;;;6248385;22;19999;-85
2023/12/28 14:18:36;;;;;;;0.00;0.00;;;;;;;;;;6248950;22;20011;-83
2023/12/28 14:21:03;;;;;;;0.00;0.00;;;;;;;;;;6222532;22;20003;-83
2023/12/28 14:23:30;;;;;;;0.00;0.00;;;;;;;;;;6223705;22;20023;-84
2023/12/28 14:25:56;;;;;;;0.00;0.00;;;;;;;;;;6198139;22;20007;-84
2023/12/28 14:28:24;;;;;;;0.00;0.00;;;;;;;;;;6248689;22;20398;-83
2023/12/28 14:30:58;;;;;;;0.00;0.00;;;;;;;;;;6275891;22;20077;-84
2023/12/28 14:33:24;;;;;;;0.00;0.00;;;;;;;;;;6224606;22;20011;-83
2023/12/28 14:35:50;;;;;;;0.00;0.00;;;;;;;;;;6222752;22;20079;-84
2023/12/28 14:38:16;;;;;;;0.00;0.00;;;;;;;;;;6247498;22;20416;-83
2023/12/28 14:40:42;;;;;;;0.00;0.00;;;;;;;;;;6274758;22;19996;-84